Time;durP1;ratioP1;P1;durP2;ratioP2;P2;SDS_P1;SDS_P2;PMS_P1;PMS_P2;Temp;Humidity;BMP_temperature;BMP_pressure;BME280_temperature;BME280_humidity;BME280_pressure;Samples;Min_cycle;Max_cycle;Signal;HPM_P1;HPM_P2
2021/03/14 00:00:27;;;;;;;2.33;2.12;;;;;;;6.76;68.11;95209.99;1775341;80;21123;-83
2021/03/14 00:02:57;;;;;;;3.00;2.42;;;;;;;6.72;67.65;95179.58;1775545;80;21337;-83
2021/03/14 00:05:23;;;;;;;2.67;2.25;;;;;;;6.69;67.81;95172.22;1775531;81;21318;-83
2021/03/14 00:07:49;;;;;;;1.92;1.45;;;;;;;6.63;67.83;95174.53;1775549;81;21114;-83
2021/03/14 00:10:15;;;;;;;1.90;1.30;;;;;;;6.59;67.51;95171.23;1775420;80;21097;-83
2021/03/14 00:12:41;;;;;;;5.75;2.62;;;;;;;6.56;67.32;95168.53;1775467;80;21380;-83
2021/03/14 00:15:07;;;;;;;3.05;1.50;;;;;;;6.53;67.26;95151.34;1775613;81;21083;-82
2021/03/14 00:17:34;;;;;;;2.60;1.80;;;;;;;6.49;67.25;95148.80;1775448;80;21225;-83
2021/03/14 00:20:00;;;;;;;2.65;1.98;;;;;;;6.46;67.00;95169.33;1775534;80;21091;-83
2021/03/14 00:22:26;;;;;;;1.90;1.60;;;;;;;6.42;66.94;95165.53;1775387;80;21131;-83
2021/03/14 00:24:52;;;;;;;1.82;1.50;;;;;;;6.40;66.94;95164.92;1775113;81;21249;-83
2021/03/14 00:27:18;;;;;;;2.92;1.60;;;;;;;6.37;66.98;95163.21;1755327;81;22019;-83
2021/03/14 00:29:44;;;;;;;1.75;1.65;;;;;;;6.34;67.15;95159.19;1774819;81;21249;-83
2021/03/14 00:32:10;;;;;;;2.20;1.50;;;;;;;6.32;67.17;95154.22;1774862;80;21130;-82
2021/03/14 00:34:35;;;;;;;1.47;1.30;;;;;;;6.31;66.91;95178.42;1774750;81;21095;-83
2021/03/14 00:37:01;;;;;;;3.10;1.55;;;;;;;6.33;66.85;95185.98;1774817;81;21086;-82
2021/03/14 00:39:27;;;;;;;2.72;1.42;;;;;;;6.31;66.89;95187.95;1755093;81;21146;-83
2021/03/14 00:41:54;;;;;;;1.45;0.93;;;;;;;6.28;67.06;95196.86;1774860;80;21236;-83
2021/03/14 00:44:20;;;;;;;3.25;2.45;;;;;;;6.24;66.30;95194.34;1774795;80;21102;-83
2021/03/14 00:46:45;;;;;;;3.47;2.52;;;;;;;6.19;66.31;95195.39;1774341;81;21099;-83
2021/03/14 00:49:20;;;;;;;1.42;1.20;;;;;;;6.17;65.73;95196.05;1774731;81;21079;-83
2021/03/14 00:51:46;;;;;;;2.55;1.42;;;;;;;6.13;64.84;95196.11;1775446;81;21110;-83
2021/03/14 00:54:12;;;;;;;3.55;1.75;;;;;;;6.12;64.96;95202.25;1775376;80;21091;-83
2021/03/14 00:56:39;;;;;;;3.52;2.12;;;;;;;6.10;64.97;95211.95;1775377;80;21244;-83
2021/03/14 00:59:05;;;;;;;3.45;1.32;;;;;;;6.09;64.74;95223.25;1775337;81;21452;-83
2021/03/14 01:01:31;;;;;;;1.98;1.00;;;;;;;6.08;64.44;95204.09;1775367;81;21098;-83
2021/03/14 01:03:57;;;;;;;2.55;1.10;;;;;;;6.06;64.47;95206.86;1775491;81;21205;-83
2021/03/14 01:06:23;;;;;;;2.80;1.10;;;;;;;6.08;64.56;95220.36;1775416;81;21133;-83
2021/03/14 01:08:50;;;;;;;1.15;0.85;;;;;;;6.11;64.51;95208.39;1775403;80;21095;-83
2021/03/14 01:11:16;;;;;;;1.15;0.85;;;;;;;6.12;64.34;95185.98;1775504;81;21102;-83
2021/03/14 01:13:41;;;;;;;2.30;0.80;;;;;;;6.10;64.14;95184.87;1755711;81;21102;-83
2021/03/14 01:16:07;;;;;;;1.65;1.27;;;;;;;6.07;63.91;95174.93;1775606;81;21090;-83
2021/03/14 01:18:33;;;;;;;3.20;1.10;;;;;;;6.03;63.72;95168.55;1775358;81;21306;-83
2021/03/14 01:20:59;;;;;;;2.25;1.20;;;;;;;5.99;63.70;95170.67;1775565;81;21472;-82
2021/03/14 01:23:26;;;;;;;3.12;1.27;;;;;;;5.98;63.79;95192.28;1780662;80;21106;-83
2021/03/14 01:25:51;;;;;;;3.58;1.45;;;;;;;5.96;63.76;95192.95;1783923;80;21102;-83
2021/03/14 01:28:18;;;;;;;3.27;1.90;;;;;;;5.93;63.83;95179.14;1783874;80;21207;-83
2021/03/14 01:30:44;;;;;;;2.47;1.35;;;;;;;5.91;64.06;95168.70;1783874;80;21102;-83
2021/03/14 01:33:10;;;;;;;2.55;1.27;;;;;;;5.88;64.00;95178.07;1783929;80;21083;-83
2021/03/14 01:35:36;;;;;;;1.30;0.90;;;;;;;5.85;64.02;95179.70;1783816;80;21067;-83
2021/03/14 01:38:02;;;;;;;1.82;0.90;;;;;;;5.82;64.51;95184.73;1783933;80;21205;-83
2021/03/14 01:40:28;;;;;;;2.30;0.90;;;;;;;5.78;64.26;95180.92;1783567;80;21334;-82
2021/03/14 01:42:54;;;;;;;0.90;0.60;;;;;;;5.77;64.17;95163.06;1783264;80;21114;-83
2021/03/14 01:45:20;;;;;;;1.75;1.07;;;;;;;5.78;63.85;95169.33;1783225;80;21150;-82
2021/03/14 01:47:50;;;;;;;1.30;0.70;;;;;;;5.81;63.59;95165.58;1783057;80;21380;-82
2021/03/14 01:50:19;;;;;;;0.88;0.62;;;;;;;5.82;63.47;95153.80;1783551;80;21109;-83
2021/03/14 01:52:45;;;;;;;1.82;1.00;;;;;;;5.82;63.33;95147.84;1783921;80;21519;-83
2021/03/14 01:55:12;;;;;;;1.05;0.70;;;;;;;5.80;63.30;95159.63;1783906;80;21121;-82
2021/03/14 01:57:39;;;;;;;1.05;0.60;;;;;;;5.79;63.26;95157.23;1784053;80;21110;-83
2021/03/14 02:00:08;;;;;;;0.82;0.60;;;;;;;5.79;63.23;95164.97;1783792;80;21137;-83
2021/03/14 02:02:34;;;;;;;0.80;0.60;;;;;;;5.78;63.30;95171.11;1783860;80;21090;-83
2021/03/14 02:05:00;;;;;;;3.12;0.70;;;;;;;5.75;63.34;95178.72;1784080;80;21114;-82
2021/03/14 02:07:26;;;;;;;1.57;1.10;;;;;;;5.73;63.61;95163.92;1783936;80;21078;-83
2021/03/14 02:09:52;;;;;;;1.15;0.60;;;;;;;5.69;63.67;95154.47;1784079;80;21217;-83
2021/03/14 02:12:20;;;;;;;3.17;0.70;;;;;;;5.67;63.97;95151.25;1783920;80;21291;-83
2021/03/14 02:14:46;;;;;;;1.05;0.70;;;;;;;5.63;63.95;95152.60;1783865;80;21055;-82
2021/03/14 02:17:16;;;;;;;0.60;0.50;;;;;;;5.59;63.95;95159.59;1758033;80;21452;-83
2021/03/14 02:19:49;;;;;;;0.57;0.50;;;;;;;5.57;64.31;95175.23;1783849;80;21145;-82
2021/03/14 02:22:15;;;;;;;0.80;0.70;;;;;;;5.58;64.14;95169.10;1756962;80;21106;-83
2021/03/14 02:24:48;;;;;;;2.02;0.80;;;;;;;5.59;64.21;95168.61;1775405;80;21086;-83
2021/03/14 02:27:14;;;;;;;1.50;0.60;;;;;;;5.57;64.14;95162.35;1775393;80;21102;-82
2021/03/14 02:29:41;;;;;;;0.90;0.62;;;;;;;5.55;64.40;95160.45;1755888;81;21233;-83
2021/03/14 02:32:09;;;;;;;1.57;0.80;;;;;;;5.52;64.39;95154.34;1775462;80;21232;-83
2021/03/14 02:34:37;;;;;;;0.70;0.60;;;;;;;5.48;64.47;95149.73;1755995;81;21103;-82
2021/03/14 02:37:04;;;;;;;1.07;0.65;;;;;;;5.43;64.56;95140.78;1755990;81;21135;-82
2021/03/14 02:39:30;;;;;;;0.60;0.60;;;;;;;5.40;64.62;95149.36;1775391;80;21130;-82
2021/03/14 02:41:58;;;;;;;1.60;0.70;;;;;;;5.37;65.01;95163.41;1775319;80;21122;-82
2021/03/14 02:44:31;;;;;;;0.62;0.60;;;;;;;5.34;64.65;95152.64;1775345;81;21130;-82
2021/03/14 02:46:57;;;;;;;1.10;0.62;;;;;;;5.33;64.67;95152.33;1775425;81;21107;-82
2021/03/14 02:49:23;;;;;;;1.67;0.60;;;;;;;5.32;64.71;95155.88;1775551;81;21326;-82
2021/03/14 02:51:49;;;;;;;1.05;0.60;;;;;;;5.30;64.61;95153.48;1775366;80;21099;-82
2021/03/14 02:54:16;;;;;;;1.32;0.80;;;;;;;5.33;64.81;95154.41;1775360;81;21353;-83
2021/03/14 02:56:44;;;;;;;1.30;0.75;;;;;;;5.35;64.63;95146.50;1775379;81;21110;-82
2021/03/14 02:59:16;;;;;;;0.78;0.60;;;;;;;5.37;64.66;95145.86;1775244;81;21098;-83
2021/03/14 03:01:45;;;;;;;1.32;0.70;;;;;;;5.39;64.74;95142.12;1775530;81;21369;-82
2021/03/14 03:04:11;;;;;;;0.95;0.75;;;;;;;5.41;64.94;95152.25;1756216;81;21091;-82
2021/03/14 03:06:37;;;;;;;0.60;0.50;;;;;;;5.40;64.95;95153.23;1775522;80;21325;-83
2021/03/14 03:09:03;;;;;;;1.00;0.75;;;;;;;5.38;64.96;95165.00;1756044;81;21079;-83
2021/03/14 03:11:29;;;;;;;1.05;0.53;;;;;;;5.39;64.96;95181.25;1775673;80;21409;-82
2021/03/14 03:13:55;;;;;;;0.70;0.70;;;;;;;5.36;65.17;95179.80;1775533;81;21213;-83
2021/03/14 03:16:23;;;;;;;1.10;0.80;;;;;;;5.35;65.07;95173.06;1775505;80;21077;-82
2021/03/14 03:18:49;;;;;;;1.35;0.70;;;;;;;5.35;65.25;95177.41;1775801;81;21107;-82
2021/03/14 03:21:15;;;;;;;0.90;0.60;;;;;;;5.33;65.27;95166.00;1775511;80;21322;-83
2021/03/14 03:23:40;;;;;;;1.40;0.82;;;;;;;5.37;65.05;95176.28;1775525;80;21309;-82
2021/03/14 03:26:07;;;;;;;3.25;0.70;;;;;;;5.39;64.88;95173.04;1775554;81;21074;-83
2021/03/14 03:28:35;;;;;;;0.57;0.53;;;;;;;5.41;64.73;95179.30;1775475;80;21122;-82
2021/03/14 03:31:02;;;;;;;1.02;0.72;;;;;;;5.41;64.62;95176.23;1775541;81;21217;-83
2021/03/14 03:33:28;;;;;;;1.47;0.80;;;;;;;5.43;64.68;95175.56;1775722;80;21090;-82
2021/03/14 03:35:54;;;;;;;2.25;0.93;;;;;;;5.42;64.46;95172.67;1775598;81;21094;-82
2021/03/14 03:38:20;;;;;;;2.15;0.95;;;;;;;5.42;64.40;95179.11;1775475;81;21107;-82
2021/03/14 03:40:46;;;;;;;1.17;0.50;;;;;;;5.40;64.33;95177.21;1775542;81;21118;-83
2021/03/14 03:43:25;;;;;;;0.90;0.70;;;;;;;5.40;64.34;95177.70;1775440;81;21110;-82
2021/03/14 03:45:58;;;;;;;0.93;0.65;;;;;;;5.38;63.96;95182.23;1775160;81;21257;-82
2021/03/14 03:48:30;;;;;;;1.57;0.93;;;;;;;5.38;64.40;95171.44;1775562;80;21123;-83
2021/03/14 03:50:57;;;;;;;1.10;0.78;;;;;;;5.37;64.40;95172.42;1775796;81;21229;-83
2021/03/14 03:53:23;;;;;;;1.05;0.70;;;;;;;5.35;64.31;95184.66;1775503;81;21087;-82
2021/03/14 03:55:50;;;;;;;1.22;0.70;;;;;;;5.34;64.51;95186.13;1775500;80;21094;-82
2021/03/14 03:58:16;;;;;;;1.47;0.60;;;;;;;5.35;64.61;95182.56;1775452;81;21127;-83
2021/03/14 04:00:42;;;;;;;1.72;0.75;;;;;;;5.37;64.54;95178.86;1775646;80;21095;-82
2021/03/14 04:03:08;;;;;;;0.98;0.62;;;;;;;5.41;64.50;95189.11;1775659;80;21102;-83
2021/03/14 04:05:34;;;;;;;0.70;0.65;;;;;;;5.43;64.55;95183.28;1775649;81;21121;-82
2021/03/14 04:08:00;;;;;;;0.65;0.50;;;;;;;5.45;64.33;95179.73;1775461;81;21106;-82
2021/03/14 04:10:27;;;;;;;1.07;0.70;;;;;;;5.47;64.46;95183.72;1775523;81;21067;-83
2021/03/14 04:12:53;;;;;;;0.95;0.62;;;;;;;5.46;64.49;95179.55;1775466;80;21075;-82
2021/03/14 04:15:22;;;;;;;0.85;0.75;;;;;;;5.46;64.63;95188.56;1723384;81;21123;-82
2021/03/14 04:17:48;;;;;;;0.90;0.85;;;;;;;5.45;64.64;95188.75;1775436;80;21106;-82
2021/03/14 04:20:18;;;;;;;1.77;0.75;;;;;;;5.45;64.59;95191.32;1775368;80;21445;-82
2021/03/14 04:22:47;;;;;;;0.90;0.70;;;;;;;5.45;64.67;95195.19;1775710;80;21091;-82
2021/03/14 04:25:13;;;;;;;0.90;0.70;;;;;;;5.44;64.59;95187.95;1783957;80;21070;-83
2021/03/14 04:27:40;;;;;;;1.17;0.70;;;;;;;5.45;64.68;95179.73;1784101;80;21121;-82
2021/03/14 04:30:07;;;;;;;1.57;0.80;;;;;;;5.45;64.51;95172.00;1783901;80;21090;-82
2021/03/14 04:32:35;;;;;;;0.78;0.60;;;;;;;5.45;64.71;95175.86;1783990;80;21133;-82
2021/03/14 04:35:01;;;;;;;1.45;0.70;;;;;;;5.43;64.52;95178.63;1756813;80;21230;-83
2021/03/14 04:37:27;;;;;;;0.70;0.70;;;;;;;5.42;64.59;95173.16;1783972;80;21095;-83
2021/03/14 04:39:53;;;;;;;1.25;0.82;;;;;;;5.38;64.84;95165.48;1784003;80;21110;-83
2021/03/14 04:42:20;;;;;;;1.75;0.70;;;;;;;5.34;64.97;95159.88;1757725;80;21122;-82
2021/03/14 04:44:47;;;;;;;1.22;0.78;;;;;;;5.32;64.76;95160.55;1783910;80;21129;-82
2021/03/14 04:47:13;;;;;;;1.32;1.05;;;;;;;5.28;64.78;95146.44;1784035;80;21357;-83
2021/03/14 04:49:39;;;;;;;1.47;0.90;;;;;;;5.27;64.81;95149.98;1783910;80;21098;-82
2021/03/14 04:52:05;;;;;;;1.00;0.70;;;;;;;5.26;65.08;95149.68;1784134;80;21256;-83
2021/03/14 04:54:31;;;;;;;1.57;0.70;;;;;;;5.26;64.99;95149.68;1783940;80;21308;-82
2021/03/14 04:56:57;;;;;;;1.10;0.70;;;;;;;5.28;65.07;95147.72;1783985;80;21093;-82
2021/03/14 04:59:23;;;;;;;0.90;0.80;;;;;;;5.28;65.01;95152.08;1783837;80;21117;-82
2021/03/14 05:01:50;;;;;;;1.40;0.90;;;;;;;5.29;65.05;95154.96;1784258;80;21098;-82
2021/03/14 05:04:19;;;;;;;1.27;0.85;;;;;;;5.26;65.29;95160.47;1783956;80;21105;-82
2021/03/14 05:06:45;;;;;;;3.12;1.10;;;;;;;5.22;65.16;95163.09;1783962;80;21427;-83
2021/03/14 05:09:15;;;;;;;1.12;1.02;;;;;;;5.18;65.28;95150.25;1784182;80;21333;-82
2021/03/14 05:11:42;;;;;;;1.52;0.80;;;;;;;5.17;65.36;95155.89;1783939;80;21211;-82
2021/03/14 05:14:08;;;;;;;3.55;0.90;;;;;;;5.11;65.60;95148.88;1783927;80;21121;-82
2021/03/14 05:16:34;;;;;;;2.45;1.10;;;;;;;5.08;65.35;95141.52;1757678;80;21380;-83
2021/03/14 05:19:01;;;;;;;2.52;1.00;;;;;;;5.10;65.44;95147.28;1784118;80;21066;-83
2021/03/14 05:21:27;;;;;;;1.00;0.70;;;;;;;5.11;65.51;95136.02;1733151;80;21393;-83
2021/03/14 05:23:53;;;;;;;1.37;0.98;;;;;;;5.11;65.46;95136.81;1784037;80;21115;-82
2021/03/14 05:26:19;;;;;;;2.52;1.55;;;;;;;5.13;65.42;95131.48;1783400;80;21106;-82
2021/03/14 05:28:45;;;;;;;1.40;0.78;;;;;;;5.13;65.30;95135.34;1783245;80;21083;-82
2021/03/14 05:31:33;;;;;;;0.60;0.53;;;;;;;5.13;65.35;95132.77;1783306;80;21229;-83
2021/03/14 05:34:04;;;;;;;1.37;0.80;;;;;;;5.15;65.38;95128.23;1783337;80;21122;-82
2021/03/14 05:36:30;;;;;;;2.75;1.00;;;;;;;5.13;65.37;95126.33;1783251;80;21109;-82
2021/03/14 05:38:58;;;;;;;1.55;0.65;;;;;;;5.13;65.23;95126.33;1783227;80;21106;-82
2021/03/14 05:41:24;;;;;;;2.42;1.00;;;;;;;5.12;65.35;95122.95;1783206;80;21178;-82
2021/03/14 05:43:50;;;;;;;1.55;0.98;;;;;;;5.15;65.72;95124.86;1783237;80;21118;-82
2021/03/14 05:46:16;;;;;;;2.65;1.00;;;;;;;5.19;65.33;95129.47;1783228;80;21348;-83
2021/03/14 05:48:44;;;;;;;1.57;0.95;;;;;;;5.23;65.28;95138.45;1783216;80;21119;-82
2021/03/14 05:51:10;;;;;;;1.65;0.80;;;;;;;5.28;65.30;95143.86;1783307;80;21173;-83
2021/03/14 05:53:39;;;;;;;1.40;1.10;;;;;;;5.29;65.25;95154.47;1783175;80;21467;-82
2021/03/14 05:56:07;;;;;;;1.82;0.90;;;;;;;5.30;65.26;95156.06;1783478;80;21940;-82
2021/03/14 05:58:35;;;;;;;2.02;1.10;;;;;;;5.31;65.28;95142.20;1757767;80;21114;-83
2021/03/14 06:01:07;;;;;;;1.52;0.80;;;;;;;5.32;65.25;95141.72;1783782;80;21142;-82
2021/03/14 06:03:31;;;;;;;1.25;1.07;;;;;;;5.32;65.02;95152.81;1783502;80;21090;-83
2021/03/14 06:05:57;;;;;;;1.82;1.32;;;;;;;5.32;64.92;95168.76;1783890;80;21094;-82
2021/03/14 06:08:23;;;;;;;1.30;1.10;;;;;;;5.31;65.14;95162.02;1783862;80;21110;-82
2021/03/14 06:10:49;;;;;;;1.55;1.00;;;;;;;5.28;65.29;95161.89;1783850;80;21098;-82
2021/03/14 06:13:15;;;;;;;1.30;1.12;;;;;;;5.30;65.08;95155.27;1783880;80;21103;-83
2021/03/14 06:15:41;;;;;;;1.25;0.82;;;;;;;5.31;65.04;95151.22;1784029;80;21064;-83
2021/03/14 06:18:07;;;;;;;3.65;1.10;;;;;;;5.33;65.09;95164.72;1783888;80;21070;-82
2021/03/14 06:20:44;;;;;;;1.07;0.90;;;;;;;5.32;65.07;95173.42;1783915;80;21232;-83
2021/03/14 06:23:13;;;;;;;1.72;0.80;;;;;;;5.32;65.04;95160.55;1783660;80;21097;-82
2021/03/14 06:25:41;;;;;;;3.00;1.02;;;;;;;5.34;64.71;95165.52;1775525;80;21091;-83
2021/03/14 06:28:07;;;;;;;2.70;1.07;;;;;;;5.38;64.80;95178.38;1775698;81;21098;-83
2021/03/14 06:30:33;;;;;;;1.72;1.00;;;;;;;5.45;64.71;95183.59;1775313;81;21083;-82
2021/03/14 06:33:11;;;;;;;3.37;1.20;;;;;;;5.51;64.84;95191.89;1775361;81;21125;-82
2021/03/14 06:35:50;;;;;;;2.55;1.70;;;;;;;5.54;64.92;95200.08;1775364;81;21325;-82
2021/03/14 06:38:34;;;;;;;1.30;1.00;;;;;;;5.58;64.75;95195.36;1775526;80;21066;-83
2021/03/14 06:41:08;;;;;;;1.87;1.32;;;;;;;5.60;64.72;95172.78;1775470;81;21110;-83
2021/03/14 06:43:44;;;;;;;1.35;0.90;;;;;;;5.65;64.45;95186.72;1775592;80;21217;-82
2021/03/14 06:46:29;;;;;;;2.10;1.27;;;;;;;5.68;64.18;95184.27;1775482;81;21102;-83
2021/03/14 06:49:11;;;;;;;4.70;2.10;;;;;;;5.71;64.19;95182.64;1775526;81;21305;-83
2021/03/14 06:51:42;;;;;;;3.72;1.87;;;;;;;5.75;64.09;95193.38;1775592;81;21217;-82
2021/03/14 06:54:20;;;;;;;4.17;2.75;;;;;;;5.78;63.39;95193.81;1775746;81;21110;-82
2021/03/14 06:57:05;;;;;;;4.58;1.50;;;;;;;5.83;63.52;95202.28;1775615;80;21090;-83
2021/03/14 06:59:34;;;;;;;6.75;3.58;;;;;;;5.85;63.21;95200.32;1775526;80;21114;-82
2021/03/14 07:02:04;;;;;;;5.87;2.67;;;;;;;5.87;63.57;95189.37;1775651;81;21280;-83
2021/03/14 07:04:49;;;;;;;4.50;3.40;;;;;;;5.88;63.49;95189.18;1775612;80;21091;-83
2021/03/14 07:07:31;;;;;;;1.95;1.35;;;;;;;5.91;63.67;95192.70;1775454;81;21108;-82
2021/03/14 07:10:07;;;;;;;3.17;2.00;;;;;;;5.94;63.34;95199.28;1775739;81;21102;-83
2021/03/14 07:12:45;;;;;;;4.37;2.77;;;;;;;5.97;63.16;95192.46;1775495;81;21094;-82
2021/03/14 07:15:17;;;;;;;6.25;2.47;;;;;;;5.99;63.26;95199.03;1775523;81;21310;-83
2021/03/14 07:17:50;;;;;;;4.03;2.22;;;;;;;6.04;63.34;95191.27;1775548;81;21286;-82
2021/03/14 07:20:18;;;;;;;4.37;1.45;;;;;;;6.06;63.06;95182.36;1775584;81;21138;-83
2021/03/14 07:23:00;;;;;;;3.72;2.12;;;;;;;6.07;62.53;95199.42;1775533;81;21071;-83
2021/03/14 07:25:26;;;;;;;5.53;2.83;;;;;;;6.09;62.75;95201.33;1775570;80;21237;-81
2021/03/14 07:27:52;;;;;;;3.47;2.15;;;;;;;6.13;62.65;95213.36;1775601;81;21111;-83
2021/03/14 07:30:21;;;;;;;3.55;1.95;;;;;;;6.15;62.74;95210.91;1775402;80;21287;-83
2021/03/14 07:32:47;;;;;;;3.80;1.47;;;;;;;6.20;62.77;95214.25;1775592;81;21463;-82
2021/03/14 07:35:13;;;;;;;3.75;2.62;;;;;;;6.25;62.44;95229.47;1775446;81;21325;-82
2021/03/14 07:37:43;;;;;;;4.67;3.17;;;;;;;6.28;62.76;95221.86;1775451;81;21107;-83
2021/03/14 07:40:13;;;;;;;5.17;3.72;;;;;;;6.33;62.71;95223.39;1775429;81;21256;-82
2021/03/14 07:42:40;;;;;;;4.25;2.30;;;;;;;6.37;62.55;95227.71;1752597;81;21155;-83
2021/03/14 07:45:08;;;;;;;5.12;2.20;;;;;;;6.40;62.33;95235.88;1745089;82;21110;-82
2021/03/14 07:47:36;;;;;;;3.55;2.52;;;;;;;6.43;62.64;95232.13;1744861;82;21437;-82
2021/03/14 07:50:04;;;;;;;6.53;3.58;;;;;;;6.49;62.44;95239.13;1744958;82;21225;-82
2021/03/14 07:52:30;;;;;;;2.60;1.60;;;;;;;6.50;62.39;95244.09;1744942;82;21098;-83
2021/03/14 07:55:01;;;;;;;4.62;1.82;;;;;;;6.55;62.66;95252.11;1744908;82;21430;-83
2021/03/14 07:57:28;;;;;;;3.80;2.52;;;;;;;6.62;62.41;95259.90;1744836;82;21224;-83
2021/03/14 07:59:54;;;;;;;4.15;2.58;;;;;;;6.66;62.17;95271.94;1745036;82;21142;-82
2021/03/14 08:02:25;;;;;;;3.55;2.50;;;;;;;6.71;62.24;95271.72;1745042;82;21305;-83
2021/03/14 08:04:58;;;;;;;4.43;2.70;;;;;;;6.78;62.46;95285.47;1745129;82;21244;-82
2021/03/14 08:07:38;;;;;;;4.30;2.58;;;;;;;6.84;62.22;95282.66;1745105;82;21278;-83
2021/03/14 08:10:08;;;;;;;5.03;3.17;;;;;;;6.91;62.39;95276.55;1744949;82;21134;-83
2021/03/14 08:12:41;;;;;;;3.67;2.60;;;;;;;6.99;62.76;95282.07;1744256;82;21130;-83
2021/03/14 08:15:26;;;;;;;4.12;3.27;;;;;;;7.06;62.45;95285.53;1725804;82;21106;-83
2021/03/14 08:17:55;;;;;;;3.35;2.08;;;;;;;7.09;61.44;95284.34;1744967;82;21241;-83
2021/03/14 08:20:40;;;;;;;20.95;13.98;;;;;;;7.09;61.44;95293.39;1744765;82;21264;-83
2021/03/14 08:23:08;;;;;;;21.65;13.83;;;;;;;7.08;61.05;95295.67;1744931;82;21141;-83
2021/03/14 08:25:48;;;;;;;10.93;8.43;;;;;;;7.06;61.13;95302.80;1744734;82;21106;-83
2021/03/14 08:28:31;;;;;;;7.20;5.67;;;;;;;7.04;61.08;95301.70;1744912;82;21110;-83
2021/03/14 08:31:05;;;;;;;4.05;3.02;;;;;;;7.01;61.21;95300.79;1743541;82;21352;-83
2021/03/14 08:33:36;;;;;;;2.67;1.75;;;;;;;6.99;60.69;95309.69;1741120;82;21233;-83
2021/03/14 08:36:07;;;;;;;6.05;3.15;;;;;;;6.98;60.87;95310.17;1725371;82;21118;-83
2021/03/14 08:38:48;;;;;;;8.13;6.03;;;;;;;7.00;60.61;95312.59;1744983;82;21131;-83
2021/03/14 08:41:27;;;;;;;4.30;2.98;;;;;;;6.99;60.57;95300.15;1744761;82;21249;-83
2021/03/14 08:44:07;;;;;;;3.12;1.65;;;;;;;7.01;60.59;95301.28;1744895;82;21118;-83
2021/03/14 08:46:54;;;;;;;2.40;1.45;;;;;;;7.02;60.32;95299.00;1744929;82;21079;-83
2021/03/14 08:49:22;;;;;;;2.80;1.47;;;;;;;7.03;60.53;95297.52;1744817;82;21240;-83
2021/03/14 08:51:48;;;;;;;2.17;1.65;;;;;;;7.04;60.74;95298.33;1744948;82;21445;-83
2021/03/14 08:54:14;;;;;;;2.77;1.37;;;;;;;7.03;60.20;95295.44;1744811;82;21137;-83
2021/03/14 08:56:40;;;;;;;4.08;1.50;;;;;;;6.98;60.36;95301.14;1744799;82;21221;-82
2021/03/14 08:59:18;;;;;;;3.27;1.57;;;;;;;6.95;60.34;95302.00;1744709;82;21228;-83
2021/03/14 09:01:44;;;;;;;2.25;1.50;;;;;;;6.95;60.56;95300.72;1744933;82;21232;-83
2021/03/14 09:04:13;;;;;;;2.90;1.50;;;;;;;6.92;60.44;95310.44;1744823;82;21253;-83
2021/03/14 09:06:39;;;;;;;3.27;1.52;;;;;;;6.91;60.56;95311.91;1744838;82;21118;-83
2021/03/14 09:09:08;;;;;;;3.15;1.37;;;;;;;6.90;60.78;95321.45;1744931;82;21114;-83
2021/03/14 09:11:49;;;;;;;2.52;1.82;;;;;;;6.88;60.69;95325.20;1744899;82;21134;-83
2021/03/14 09:14:40;;;;;;;3.20;2.30;;;;;;;6.85;60.82;95325.08;1745013;82;21110;-83
2021/03/14 09:17:15;;;;;;;3.62;1.98;;;;;;;6.83;61.01;95330.09;1744928;82;21118;-83
2021/03/14 09:19:48;;;;;;;4.42;2.42;;;;;;;6.81;61.28;95334.16;1744861;82;21126;-83
2021/03/14 09:22:20;;;;;;;3.92;1.90;;;;;;;6.80;61.53;95328.68;1744808;82;21118;-83
2021/03/14 09:24:51;;;;;;;8.68;6.00;;;;;;;6.81;62.06;95323.02;1748156;82;21255;-83
2021/03/14 09:27:20;;;;;;;8.83;6.58;;;;;;;6.78;61.87;95327.27;1752995;82;21114;-83
2021/03/14 09:29:53;;;;;;;3.17;2.60;;;;;;;6.79;62.11;95347.73;1752856;81;21472;-83
2021/03/14 09:32:33;;;;;;;19.48;17.87;;;;;;;6.77;61.81;95341.16;1752972;82;21429;-83
2021/03/14 09:35:20;;;;;;;10.90;9.83;;;;;;;6.73;62.17;95345.10;1752980;82;21225;-83
2021/03/14 09:38:01;;;;;;;6.58;5.97;;;;;;;6.67;62.31;95346.64;1753035;82;21217;-83
2021/03/14 09:40:38;;;;;;;4.53;3.00;;;;;;;6.61;62.40;95355.09;1753271;82;21122;-83
2021/03/14 09:43:22;;;;;;;7.10;4.33;;;;;;;6.50;62.52;95355.06;1753016;82;21321;-83
2021/03/14 09:45:54;;;;;;;6.25;5.00;;;;;;;6.44;62.72;95348.55;1753110;82;21130;-83
2021/03/14 09:48:25;;;;;;;;;;;;;;;6.48;63.17;95348.00;1755745;82;21221;-83
2021/03/14 09:51:07;;;;;;;44.13;31.55;;;;;;;6.55;63.18;95348.89;1752571;82;20220;-82
2021/03/14 09:53:35;;;;;;;15.65;12.58;;;;;;;6.60;63.26;95360.75;1752071;82;21264;-83
2021/03/14 09:56:09;;;;;;;7.05;4.12;;;;;;;6.69;63.37;95356.29;1753087;82;21130;-83
2021/03/14 09:58:36;;;;;;;8.75;7.70;;;;;;;6.75;63.17;95361.20;1753172;81;21122;-83
2021/03/14 10:01:03;;;;;;;3.80;2.90;;;;;;;6.82;63.05;95367.22;1727657;82;21313;-82
2021/03/14 10:03:31;;;;;;;10.25;9.15;;;;;;;6.84;63.06;95364.00;1753048;82;21126;-83
2021/03/14 10:06:00;;;;;;;4.00;3.60;;;;;;;6.86;62.80;95366.70;1753048;82;21134;-83
2021/03/14 10:08:32;;;;;;;4.45;2.77;;;;;;;6.86;62.46;95367.19;1752233;82;21125;-83
2021/03/14 10:11:03;;;;;;;4.75;2.90;;;;;;;6.84;62.14;95364.00;1752885;82;21129;-83
2021/03/14 10:13:29;;;;;;;4.83;2.83;;;;;;;6.84;62.51;95375.13;1752970;82;21102;-83
2021/03/14 10:15:56;;;;;;;6.45;4.83;;;;;;;6.86;62.19;95377.03;1752955;82;21114;-83
2021/03/14 10:18:24;;;;;;;5.15;4.25;;;;;;;6.82;62.15;95385.30;1753134;82;21138;-83
2021/03/14 10:20:54;;;;;;;3.55;2.90;;;;;;;6.80;62.17;95387.27;1752599;82;21098;-82
2021/03/14 10:23:22;;;;;;;7.35;5.75;;;;;;;6.78;62.32;95384.08;1749209;82;21082;-82
2021/03/14 10:25:48;;;;;;;6.62;4.60;;;;;;;6.81;62.52;95384.99;1746980;81;21087;-83
2021/03/14 10:28:17;;;;;;;9.28;5.62;;;;;;;6.81;61.97;95390.95;1744738;82;21109;-83
2021/03/14 10:30:46;;;;;;;10.88;5.40;;;;;;;6.82;62.19;95399.50;1744579;82;21102;-83
2021/03/14 10:33:15;;;;;;;4.62;3.25;;;;;;;6.85;62.49;95410.29;1744911;82;21107;-83
2021/03/14 10:35:42;;;;;;;4.60;3.52;;;;;;;6.88;62.62;95411.70;1744781;82;21078;-83
2021/03/14 10:38:20;;;;;;;6.47;3.70;;;;;;;6.90;62.48;95404.57;1726010;82;21314;-83
2021/03/14 10:40:46;;;;;;;3.45;2.70;;;;;;;6.96;62.34;95408.99;1744723;82;21348;-83
2021/03/14 10:43:25;;;;;;;6.28;3.62;;;;;;;7.03;62.39;95402.63;1744773;82;21103;-83
2021/03/14 10:45:52;;;;;;;3.70;3.08;;;;;;;7.05;62.50;95396.28;1744532;82;21127;-83
2021/03/14 10:48:27;;;;;;;4.22;2.85;;;;;;;7.05;62.36;95402.74;1744721;82;21101;-83
2021/03/14 10:51:03;;;;;;;4.87;2.77;;;;;;;7.00;61.48;95389.59;1744754;82;21111;-83
2021/03/14 10:53:29;;;;;;;5.12;3.33;;;;;;;6.97;61.98;95401.55;1744329;82;21244;-83
2021/03/14 10:56:08;;;;;;;9.03;5.92;;;;;;;6.94;61.79;95396.76;1744864;82;21134;-83
2021/03/14 10:58:41;;;;;;;7.22;3.12;;;;;;;6.95;61.62;95387.23;1744824;82;21125;-83
2021/03/14 11:01:09;;;;;;;3.85;3.45;;;;;;;6.92;61.36;95394.86;1744755;82;21131;-83
2021/03/14 11:03:38;;;;;;;3.08;2.00;;;;;;;6.89;61.22;95397.31;1744807;82;21329;-83
2021/03/14 11:06:11;;;;;;;5.65;3.42;;;;;;;6.89;61.59;95399.09;1744049;82;21138;-83
2021/03/14 11:09:03;;;;;;;3.33;2.70;;;;;;;6.92;61.73;95394.36;1744766;82;21074;-83
2021/03/14 11:11:45;;;;;;;4.28;3.37;;;;;;;7.02;62.00;95394.56;1744807;82;21075;-83
2021/03/14 11:14:38;;;;;;;5.05;2.65;;;;;;;7.11;61.71;95391.66;1744779;82;21119;-83
2021/03/14 11:17:18;;;;;;;3.95;2.27;;;;;;;7.17;61.22;95400.48;1744775;82;21118;-83
2021/03/14 11:19:47;;;;;;;3.87;3.35;;;;;;;7.18;60.85;95390.45;1744253;82;21393;-83
2021/03/14 11:22:14;;;;;;;5.70;2.55;;;;;;;7.21;60.67;95393.95;1744716;82;21158;-83
2021/03/14 11:24:40;;;;;;;5.60;3.05;;;;;;;7.26;59.96;95390.31;1744931;82;21337;-83
2021/03/14 11:27:06;;;;;;;3.98;2.62;;;;;;;7.33;60.59;95400.73;1726098;82;21425;-83
2021/03/14 11:29:32;;;;;;;4.28;3.40;;;;;;;7.43;60.56;95401.20;1744890;82;21119;-83
2021/03/14 11:31:58;;;;;;;6.42;5.25;;;;;;;7.50;60.63;95400.29;1745036;82;21329;-83
2021/03/14 11:34:24;;;;;;;4.67;3.72;;;;;;;7.57;60.34;95405.50;1744882;82;21322;-83
2021/03/14 11:36:50;;;;;;;5.08;4.55;;;;;;;7.62;60.07;95405.73;1744964;82;21330;-83
2021/03/14 11:39:16;;;;;;;3.33;2.75;;;;;;;7.69;59.86;95404.02;1744938;82;21408;-83
2021/03/14 11:41:43;;;;;;;5.08;3.20;;;;;;;7.82;59.14;95399.44;1744897;82;21113;-83
2021/03/14 11:44:09;;;;;;;4.67;2.98;;;;;;;7.94;59.23;95389.35;1744832;82;21269;-83
2021/03/14 11:46:35;;;;;;;6.28;2.92;;;;;;;7.99;57.97;95393.48;1744895;82;21240;-83
2021/03/14 11:49:01;;;;;;;4.50;2.40;;;;;;;8.07;58.45;95396.70;1744889;82;21119;-83
2021/03/14 11:51:27;;;;;;;4.45;2.90;;;;;;;8.17;58.65;95393.79;1744848;82;21075;-83